Portada
METAR-TAF:

METAR-TAF

Aeroports :

Aeroport de Reus

Reus, Espanya

latitud: 41-09N, longitud: 001-10E, altitud: 71 m

Observació

L'informe es va fer fa 38 minuts, a les 15:30 UTC
Vent calma
Temperatura 16°C
Humitat 63%
Pressió 1022 hPa
Visibilitat 10 km o més
sense núvols per sota de 1500 mi sense presència de cumulonimbus.

METAR: LERS 071530Z 00000KT CAVOK 16/09 Q1022

Hora: 17:08 (16:08 UTC)

Pronòstic

L'informe es va fer fa 2 hores i 8 minuts, a les 14:00 UTC
Pronòstic vàlid del 07 a les 15 UTC al 08 a les 15 UTC
Vent 3 kt amb direcció variable
Visibilitat 10 km o més
Escasses núvols a una alçada de 4000 ft
Probabilitat 30% :
Temporalment
l' 07 a les 20 UTC al 08 a les 08 UTC
Visibilitat: 4000 m
Cel ennuvolat a una alçada de 1400 ft
boirina

TAF: LERS 071400Z 0715/0815 VRB03KT 9999 FEW040 TX17/0813Z TN05/0806Z PROB30 TEMPO 0720/0808 4000 BR BKN014

Observacions i pronòstics meteorològics de més de 4000 aeroports (METAR i TAF).

Les estacions disponibles són els punts grocs i vermells al mapa.

Posi el ratolí al punt desitjat per veure el nom de l'estació.

Feu clic per veure les observacions i els pronòstics meteorològics.

Per canviar el mapa: feu clic els botons verds amb una creu de color negre per apropar; al botó verd amb un guió per allunyar la imatge; o en les fletxes verdes per a mapes adjacents.


METAR-TAF: